Time;durP1;ratioP1;P1;durP2;ratioP2;P2;SDS_P1;SDS_P2;PMS_P1;PMS_P2;Temp;Humidity;BMP_temperature;BMP_pressure;BME280_temperature;BME280_humidity;BME280_pressure;Samples;Min_cycle;Max_cycle;Signal;HPM_P1;HPM_P2
2023/05/14 00:01:41;;;;;;;;;;;16.90;99.90;;;;;;8385138;28;20406;-74
2023/05/14 00:05:43;;;;;;;;;;;16.80;99.90;;;;;;8384901;28;19929;-74
2023/05/14 00:09:45;;;;;;;;;;;16.80;99.90;;;;;;8370376;28;20412;-74
2023/05/14 00:13:46;;;;;;;;;;;16.70;99.90;;;;;;8392103;28;19931;-74
2023/05/14 00:17:48;;;;;;;;;;;16.60;99.90;;;;;;8384645;28;20011;-74
2023/05/14 00:21:49;;;;;;;;;;;16.60;99.90;;;;;;8387280;28;19947;-74
2023/05/14 00:25:51;;;;;;;;;;;16.60;99.90;;;;;;8377410;28;20361;-74
2023/05/14 00:29:53;;;;;;;;;;;16.50;99.90;;;;;;8384294;28;20513;-74
2023/05/14 00:33:54;;;;;;;;;;;16.50;99.90;;;;;;8379530;28;20015;-74
2023/05/14 00:37:56;;;;;;;;;;;16.40;99.90;;;;;;8373576;28;19971;-74
2023/05/14 00:41:58;;;;;;;;;;;16.40;99.90;;;;;;8391119;28;20358;-74
2023/05/14 00:46:00;;;;;;;;;;;16.30;99.90;;;;;;8380689;28;20395;-74
2023/05/14 00:50:02;;;;;;;;;;;16.30;99.90;;;;;;8390282;28;19924;-75
2023/05/14 00:54:05;;;;;;;;;;;16.30;99.90;;;;;;8386565;28;19944;-74
2023/05/14 00:58:08;;;;;;;;;;;16.30;99.90;;;;;;8384990;28;20393;-74
2023/05/14 01:02:10;;;;;;;;;;;16.20;99.90;;;;;;8361095;28;19940;-74
2023/05/14 01:06:27;;;;;;;;;;;16.30;99.90;;;;;;8378417;28;20043;-75
2023/05/14 01:10:37;;;;;;;;;;;16.20;99.90;;;;;;8383624;28;19935;-74
2023/05/14 01:14:58;;;;;;;;;;;16.10;99.90;;;;;;8382124;28;20401;-74
2023/05/14 01:19:00;;;;;;;;;;;16.10;99.90;;;;;;8383262;28;19932;-74
2023/05/14 01:23:02;;;;;;;;;;;16.00;99.90;;;;;;8383451;28;19932;-74
2023/05/14 01:27:16;;;;;;;;;;;16.00;99.90;;;;;;8389580;28;19924;-74
2023/05/14 01:31:24;;;;;;;;;;;15.90;99.90;;;;;;8378804;28;20350;-74
2023/05/14 01:35:27;;;;;;;;;;;15.80;99.90;;;;;;8392276;28;19924;-74
2023/05/14 01:39:31;;;;;;;;;;;15.80;99.90;;;;;;8389974;28;19962;-74
2023/05/14 01:43:33;;;;;;;;;;;15.70;99.90;;;;;;8387486;28;19924;-74
2023/05/14 01:47:35;;;;;;;;;;;15.70;99.90;;;;;;8381746;28;20291;-74
2023/05/14 01:51:36;;;;;;;;;;;15.60;99.90;;;;;;8396863;28;19933;-75
2023/05/14 01:55:38;;;;;;;;;;;15.60;99.90;;;;;;8384731;28;19939;-77
2023/05/14 01:59:40;;;;;;;;;;;15.50;99.90;;;;;;8390097;28;19959;-76
2023/05/14 02:03:41;;;;;;;;;;;15.40;99.90;;;;;;8370742;28;19940;-76
2023/05/14 02:07:43;;;;;;;;;;;15.40;99.90;;;;;;8381238;28;20008;-76
2023/05/14 02:11:45;;;;;;;;;;;15.40;99.90;;;;;;8361192;28;20459;-76
2023/05/14 02:15:46;;;;;;;;;;;15.30;99.90;;;;;;8381186;28;19928;-76
2023/05/14 02:19:48;;;;;;;;;;;15.30;99.90;;;;;;8371013;28;19929;-76
2023/05/14 02:23:50;;;;;;;;;;;15.30;99.90;;;;;;8377032;28;20002;-77
2023/05/14 02:27:51;;;;;;;;;;;15.20;99.90;;;;;;8385172;28;19928;-77
2023/05/14 02:31:53;;;;;;;;;;;15.20;99.90;;;;;;8368973;28;19932;-77
2023/05/14 02:35:54;;;;;;;;;;;15.10;99.90;;;;;;8384394;28;20384;-77
2023/05/14 02:39:56;;;;;;;;;;;15.10;99.90;;;;;;8389786;28;20011;-76
2023/05/14 02:43:58;;;;;;;;;;;15.10;99.90;;;;;;8388782;28;19932;-77
2023/05/14 02:47:59;;;;;;;;;;;15.10;99.90;;;;;;8374072;28;19932;-76
2023/05/14 02:52:01;;;;;;;;;;;15.00;99.90;;;;;;8378408;28;19925;-77
2023/05/14 02:56:03;;;;;;;;;;;15.00;99.90;;;;;;8385948;28;20364;-77
2023/05/14 03:00:05;;;;;;;;;;;14.90;99.90;;;;;;8405320;28;19978;-77
2023/05/14 03:04:07;;;;;;;;;;;14.90;99.90;;;;;;8385061;28;19929;-77
2023/05/14 03:08:08;;;;;;;;;;;14.90;99.90;;;;;;8379851;28;19931;-77
2023/05/14 03:12:11;;;;;;;;;;;14.80;99.90;;;;;;8386450;28;19986;-77
2023/05/14 03:16:13;;;;;;;;;;;14.80;99.90;;;;;;8389151;28;19971;-75
2023/05/14 03:20:14;;;;;;;;;;;14.70;99.90;;;;;;8386246;28;19932;-75
2023/05/14 03:24:16;;;;;;;;;;;14.70;99.90;;;;;;8372214;28;19928;-75
2023/05/14 03:28:18;;;;;;;;;;;14.60;99.90;;;;;;8386219;28;19935;-74
2023/05/14 03:32:20;;;;;;;;;;;14.60;99.90;;;;;;8383587;28;19925;-74
2023/05/14 03:36:21;;;;;;;;;;;14.60;99.90;;;;;;8382850;28;19935;-75
2023/05/14 03:40:23;;;;;;;;;;;14.50;99.90;;;;;;8366459;28;20291;-74
2023/05/14 03:44:25;;;;;;;;;;;14.50;99.90;;;;;;8362348;28;20064;-75
2023/05/14 03:48:27;;;;;;;;;;;14.40;99.90;;;;;;8379780;28;20314;-75
2023/05/14 03:52:29;;;;;;;;;;;14.30;99.90;;;;;;8376597;28;19931;-74
2023/05/14 03:56:30;;;;;;;;;;;14.20;99.90;;;;;;8366174;28;20012;-74
2023/05/14 04:00:32;;;;;;;;;;;14.20;99.90;;;;;;8388142;28;20015;-74
2023/05/14 04:04:33;;;;;;;;;;;14.20;99.90;;;;;;8377244;28;20304;-74
2023/05/14 04:08:35;;;;;;;;;;;14.10;99.90;;;;;;8386822;28;19928;-74
2023/05/14 04:12:37;;;;;;;;;;;14.10;99.90;;;;;;8368262;28;19929;-74
2023/05/14 04:16:38;;;;;;;;;;;14.10;99.90;;;;;;8383751;28;19924;-74
2023/05/14 04:20:40;;;;;;;;;;;14.10;99.90;;;;;;8387430;28;19924;-74
2023/05/14 04:24:42;;;;;;;;;;;14.10;99.90;;;;;;8403557;28;20350;-74
2023/05/14 04:28:43;;;;;;;;;;;14.00;99.90;;;;;;8393156;28;19924;-74
2023/05/14 04:32:45;;;;;;;;;;;14.10;99.90;;;;;;8390314;28;20023;-74
2023/05/14 04:36:47;;;;;;;;;;;14.10;99.90;;;;;;8391830;28;20372;-74
2023/05/14 04:40:48;;;;;;;;;;;14.00;99.90;;;;;;8391263;28;19925;-74
2023/05/14 04:44:50;;;;;;;;;;;14.00;99.90;;;;;;8387402;28;19931;-74
2023/05/14 04:48:51;;;;;;;;;;;14.10;99.90;;;;;;8368448;28;19929;-74
2023/05/14 04:52:54;;;;;;;;;;;14.00;99.90;;;;;;8399822;28;20011;-74
2023/05/14 04:56:56;;;;;;;;;;;14.00;99.90;;;;;;8389376;28;19928;-74
2023/05/14 05:00:58;;;;;;;;;;;14.10;99.90;;;;;;8371323;28;19925;-74
2023/05/14 05:05:00;;;;;;;;;;;14.20;99.90;;;;;;8373783;28;19924;-74
2023/05/14 05:09:01;;;;;;;;;;;14.20;99.90;;;;;;8387820;28;20012;-74
2023/05/14 05:13:03;;;;;;;;;;;14.30;99.90;;;;;;8390644;28;19931;-74
2023/05/14 05:17:04;;;;;;;;;;;14.40;99.90;;;;;;8382839;28;19932;-74
2023/05/14 05:21:06;;;;;;;;;;;14.50;99.90;;;;;;8365438;28;19931;-73
2023/05/14 05:25:08;;;;;;;;;;;14.70;99.90;;;;;;8379732;28;19986;-73
2023/05/14 05:29:09;;;;;;;;;;;14.80;99.90;;;;;;8389398;28;19944;-73
2023/05/14 05:33:11;;;;;;;;;;;14.90;99.90;;;;;;8394517;28;19956;-74
2023/05/14 05:37:13;;;;;;;;;;;14.90;99.90;;;;;;8391395;28;19931;-73
2023/05/14 05:41:15;;;;;;;;;;;14.90;99.90;;;;;;8389810;28;20292;-73
2023/05/14 05:45:17;;;;;;;;;;;14.90;99.90;;;;;;8375445;28;20016;-74
2023/05/14 05:49:18;;;;;;;;;;;14.90;99.90;;;;;;8387857;28;20041;-74
2023/05/14 05:53:20;;;;;;;;;;;14.90;99.90;;;;;;8392715;28;19931;-74
2023/05/14 05:57:22;;;;;;;;;;;14.90;99.90;;;;;;8389674;28;19971;-73
2023/05/14 06:01:26;;;;;;;;;;;14.90;99.90;;;;;;8391244;28;19982;-74
2023/05/14 06:05:27;;;;;;;;;;;15.00;99.90;;;;;;8389025;28;20637;-74
2023/05/14 06:09:29;;;;;;;;;;;15.00;99.90;;;;;;8373723;28;19928;-73
2023/05/14 06:13:31;;;;;;;;;;;15.00;99.90;;;;;;8392645;28;20349;-74
2023/05/14 06:17:32;;;;;;;;;;;15.10;99.90;;;;;;8369578;28;19924;-74
2023/05/14 06:21:34;;;;;;;;;;;15.30;99.90;;;;;;8369575;28;19925;-74
2023/05/14 06:25:36;;;;;;;;;;;15.40;99.90;;;;;;8371084;28;19970;-74
2023/05/14 06:29:37;;;;;;;;;;;15.50;99.90;;;;;;8365404;28;20035;-74
2023/05/14 06:33:39;;;;;;;;;;;15.50;99.90;;;;;;8367227;28;19932;-73
2023/05/14 06:37:41;;;;;;;;;;;15.60;99.90;;;;;;8379894;28;20675;-73
2023/05/14 06:41:42;;;;;;;;;;;15.80;99.90;;;;;;8386108;28;19974;-74
2023/05/14 06:45:47;;;;;;;;;;;16.10;99.90;;;;;;8381224;28;19924;-74
2023/05/14 06:49:48;;;;;;;;;;;16.30;99.90;;;;;;8387016;28;19964;-74
2023/05/14 06:53:51;;;;;;;;;;;16.50;99.90;;;;;;8385836;28;19972;-74
2023/05/14 06:57:53;;;;;;;;;;;16.70;99.90;;;;;;8383849;28;19929;-74
2023/05/14 07:01:54;;;;;;;;;;;16.80;99.90;;;;;;8389740;28;20293;-74
2023/05/14 07:05:56;;;;;;;;;;;16.90;99.90;;;;;;8380946;28;19935;-74
2023/05/14 07:09:58;;;;;;;;;;;17.10;99.90;;;;;;8371073;28;19925;-73
2023/05/14 07:14:00;;;;;;;;;;;17.20;99.90;;;;;;8375112;28;19931;-74
2023/05/14 07:18:01;;;;;;;;;;;17.10;99.90;;;;;;8381168;28;20380;-74
2023/05/14 07:22:03;;;;;;;;;;;17.10;99.90;;;;;;8367006;28;19932;-74
2023/05/14 07:26:05;;;;;;;;;;;17.20;99.90;;;;;;8381498;28;20012;-74
2023/05/14 07:30:07;;;;;;;;;;;17.20;99.90;;;;;;8375750;28;20288;-74
2023/05/14 07:34:09;;;;;;;;;;;17.20;99.90;;;;;;8388954;28;20355;-74
2023/05/14 07:38:11;;;;;;;;;;;17.40;99.90;;;;;;8365498;28;19928;-74
2023/05/14 07:42:13;;;;;;;;;;;17.40;99.90;;;;;;8388181;28;19928;-74
2023/05/14 07:46:22;;;;;;;;;;;17.50;99.90;;;;;;8380399;28;20269;-74
2023/05/14 07:50:24;;;;;;;;;;;17.50;99.90;;;;;;8382405;28;20296;-74
2023/05/14 07:54:26;;;;;;;;;;;17.70;99.90;;;;;;8369964;28;19960;-74
2023/05/14 07:58:28;;;;;;;;;;;17.80;99.90;;;;;;8375286;28;20674;-74
2023/05/14 08:02:30;;;;;;;;;;;17.90;99.90;;;;;;8393472;28;19932;-74
2023/05/14 08:06:32;;;;;;;;;;;17.90;99.90;;;;;;8370282;28;20323;-74
2023/05/14 08:10:33;;;;;;;;;;;17.90;99.90;;;;;;8389581;28;19986;-74
2023/05/14 08:14:35;;;;;;;;;;;17.90;99.90;;;;;;8388143;28;19928;-75
2023/05/14 08:18:37;;;;;;;;;;;17.90;99.90;;;;;;8390383;28;20311;-74
2023/05/14 08:22:38;;;;;;;;;;;17.90;99.90;;;;;;8394425;28;19924;-74
2023/05/14 08:26:40;;;;;;;;;;;17.90;99.90;;;;;;8385342;28;19925;-74
2023/05/14 08:30:42;;;;;;;;;;;18.00;99.90;;;;;;8381151;28;20431;-74
2023/05/14 08:34:43;;;;;;;;;;;18.00;99.90;;;;;;8384433;28;19974;-74
2023/05/14 08:38:45;;;;;;;;;;;18.10;99.90;;;;;;8391874;28;20381;-74
2023/05/14 08:42:47;;;;;;;;;;;18.10;99.90;;;;;;8377681;28;20053;-74
2023/05/14 08:46:50;;;;;;;;;;;18.20;99.90;;;;;;8391730;28;19967;-74
2023/05/14 08:50:51;;;;;;;;;;;18.20;99.90;;;;;;8386022;28;20336;-73
2023/05/14 08:54:54;;;;;;;;;;;18.30;99.90;;;;;;8390016;28;19983;-74
2023/05/14 08:58:56;;;;;;;;;;;18.40;99.90;;;;;;8394608;28;19962;-75
2023/05/14 09:02:58;;;;;;;;;;;18.60;99.90;;;;;;8381564;28;20299;-74
2023/05/14 09:07:00;;;;;;;;;;;18.70;99.90;;;;;;8367457;28;20388;-74
2023/05/14 09:11:02;;;;;;;;;;;18.80;99.90;;;;;;8358004;28;24201;-74
2023/05/14 09:15:05;;;;;;;;;;;18.80;99.90;;;;;;8356133;28;20035;-74
2023/05/14 09:19:07;;;;;;;;;;;18.90;99.90;;;;;;8358053;28;19929;-74
2023/05/14 09:23:08;;;;;;;;;;;18.80;99.90;;;;;;8364280;28;19948;-74
2023/05/14 09:27:20;;;;;;;;;;;18.80;99.90;;;;;;8375862;28;19934;-74
2023/05/14 09:31:22;;;;;;;;;;;18.80;99.90;;;;;;8368870;28;19925;-74
2023/05/14 09:35:23;;;;;;;;;;;18.90;99.90;;;;;;8383386;28;19952;-75
2023/05/14 09:39:25;;;;;;;;;;;19.00;99.90;;;;;;8360267;28;19929;-74
2023/05/14 09:43:27;;;;;;;;;;;19.10;99.90;;;;;;8357392;28;19996;-74
2023/05/14 09:47:28;;;;;;;;;;;19.30;99.90;;;;;;8371597;28;19932;-74
2023/05/14 09:51:31;;;;;;;;;;;19.40;99.90;;;;;;8360613;28;19933;-74
2023/05/14 09:55:32;;;;;;;;;;;19.50;99.90;;;;;;8362492;28;19931;-74
2023/05/14 09:59:34;;;;;;;;;;;19.60;99.90;;;;;;8363019;28;19925;-74
2023/05/14 10:03:36;;;;;;;;;;;19.70;99.90;;;;;;8356633;28;19947;-74
2023/05/14 10:07:40;;;;;;;;;;;19.80;99.90;;;;;;8363506;28;19932;-74
2023/05/14 10:11:43;;;;;;;;;;;19.90;99.90;;;;;;8369362;28;19924;-74
2023/05/14 10:15:50;;;;;;;;;;;20.00;99.90;;;;;;8349853;28;20015;-74
2023/05/14 10:19:55;;;;;;;;;;;20.10;99.90;;;;;;8369193;28;19950;-74
2023/05/14 10:23:57;;;;;;;;;;;20.10;99.90;;;;;;8371248;28;20019;-75
2023/05/14 10:27:59;;;;;;;;;;;20.10;99.90;;;;;;8372681;28;20482;-74
2023/05/14 10:32:03;;;;;;;;;;;20.20;99.90;;;;;;8359243;28;19924;-74
2023/05/14 10:36:06;;;;;;;;;;;20.30;99.90;;;;;;8361248;28;20002;-74
2023/05/14 10:40:08;;;;;;;;;;;20.40;99.90;;;;;;8360089;28;19928;-74
2023/05/14 10:44:10;;;;;;;;;;;20.50;99.90;;;;;;8359806;28;20457;-74
2023/05/14 10:48:13;;;;;;;;;;;20.50;99.90;;;;;;8356600;28;20001;-74
2023/05/14 10:52:15;;;;;;;;;;;20.50;99.90;;;;;;8363644;28;20339;-74
2023/05/14 10:56:17;;;;;;;;;;;20.50;99.90;;;;;;8364222;28;20039;-74
2023/05/14 11:00:19;;;;;;;;;;;20.60;99.90;;;;;;8375131;28;19946;-75
2023/05/14 11:04:26;;;;;;;;;;;20.60;99.90;;;;;;8363767;28;19977;-74
2023/05/14 11:08:27;;;;;;;;;;;20.70;99.90;;;;;;8355236;28;20448;-74
2023/05/14 11:12:30;;;;;;;;;;;20.70;99.90;;;;;;8361931;28;19925;-74
2023/05/14 11:16:32;;;;;;;;;;;20.80;99.90;;;;;;8359554;28;19935;-74
2023/05/14 11:20:34;;;;;;;;;;;21.00;99.90;;;;;;8360723;28;20157;-74
2023/05/14 11:24:36;;;;;;;;;;;21.10;99.90;;;;;;8362064;28;19925;-74
2023/05/14 11:28:38;;;;;;;;;;;21.20;99.90;;;;;;8342197;28;19932;-75
2023/05/14 11:32:40;;;;;;;;;;;21.30;99.90;;;;;;8356780;28;19932;-74
2023/05/14 11:36:42;;;;;;;;;;;21.40;99.90;;;;;;8363528;28;20023;-75
2023/05/14 11:40:58;;;;;;;;;;;21.40;99.90;;;;;;8368550;28;20411;-74
2023/05/14 11:45:00;;;;;;;;;;;21.50;99.90;;;;;;8363507;28;19939;-74
2023/05/14 11:49:08;;;;;;;;;;;21.60;99.90;;;;;;8360561;28;20012;-75
2023/05/14 11:53:09;;;;;;;;;;;21.50;99.90;;;;;;8365348;28;19971;-74
2023/05/14 11:57:12;;;;;;;;;;;21.60;99.90;;;;;;8376876;28;19983;-74
2023/05/14 12:01:14;;;;;;;;;;;21.70;99.90;;;;;;8364737;28;20329;-74
2023/05/14 12:05:16;;;;;;;;;;;21.70;99.90;;;;;;8366634;28;19932;-75
2023/05/14 12:09:18;;;;;;;;;;;21.80;99.90;;;;;;8344650;28;19929;-74
2023/05/14 12:13:21;;;;;;;;;;;21.90;99.90;;;;;;8348845;28;19929;-74
2023/05/14 12:17:22;;;;;;;;;;;21.90;99.90;;;;;;8352435;28;20360;-74
2023/05/14 12:21:25;;;;;;;;;;;22.00;99.90;;;;;;8366312;28;20015;-75
2023/05/14 12:25:27;;;;;;;;;;;22.10;99.90;;;;;;8373448;28;19932;-75
2023/05/14 12:29:29;;;;;;;;;;;22.20;99.90;;;;;;8372323;28;19928;-75
2023/05/14 12:33:31;;;;;;;;;;;22.30;99.90;;;;;;8379766;28;20383;-74
2023/05/14 12:37:33;;;;;;;;;;;22.40;99.90;;;;;;8382538;28;19932;-75
2023/05/14 12:41:34;;;;;;;;;;;22.50;99.90;;;;;;8352966;28;19929;-75
2023/05/14 12:45:36;;;;;;;;;;;22.40;99.90;;;;;;8371847;28;20040;-74
2023/05/14 12:49:38;;;;;;;;;;;22.50;99.90;;;;;;8371619;28;19950;-75
2023/05/14 12:53:40;;;;;;;;;;;22.50;99.90;;;;;;8369353;28;19929;-75
2023/05/14 12:57:41;;;;;;;;;;;22.40;99.90;;;;;;8365964;28;19925;-74
2023/05/14 13:01:43;;;;;;;;;;;22.40;99.90;;;;;;8368653;28;19931;-74
2023/05/14 13:05:44;;;;;;;;;;;22.30;99.90;;;;;;8373877;28;19939;-75
2023/05/14 13:09:46;;;;;;;;;;;22.40;99.90;;;;;;8364871;28;20303;-75
2023/05/14 13:13:48;;;;;;;;;;;22.30;99.90;;;;;;8372291;28;20008;-75
2023/05/14 13:17:49;;;;;;;;;;;22.30;99.90;;;;;;8355606;28;20015;-74
2023/05/14 13:21:51;;;;;;;;;;;22.40;99.90;;;;;;8364704;28;21388;-75
2023/05/14 13:25:53;;;;;;;;;;;22.40;99.90;;;;;;8360590;28;20395;-74
2023/05/14 13:29:55;;;;;;;;;;;22.40;99.90;;;;;;8366692;28;19975;-74
2023/05/14 13:33:58;;;;;;;;;;;22.40;99.90;;;;;;8352548;28;19963;-74
2023/05/14 13:37:59;;;;;;;;;;;22.40;99.90;;;;;;8375528;28;19932;-74
2023/05/14 13:42:01;;;;;;;;;;;22.30;99.90;;;;;;8366048;28;19978;-75
2023/05/14 13:46:04;;;;;;;;;;;22.30;99.90;;;;;;8358790;28;19928;-75
2023/05/14 13:50:06;;;;;;;;;;;22.20;99.90;;;;;;8366616;28;19932;-75
2023/05/14 13:54:07;;;;;;;;;;;22.20;99.90;;;;;;8368394;28;19977;-75
2023/05/14 13:58:09;;;;;;;;;;;22.20;99.90;;;;;;8375471;28;20700;-75
2023/05/14 14:02:11;;;;;;;;;;;22.10;99.90;;;;;;8375094;28;19944;-75
2023/05/14 14:06:12;;;;;;;;;;;22.00;99.90;;;;;;8356206;28;20039;-75
2023/05/14 14:10:14;;;;;;;;;;;22.00;99.90;;;;;;8380124;28;19935;-74
2023/05/14 14:14:16;;;;;;;;;;;21.90;99.90;;;;;;8344452;28;19927;-75
2023/05/14 14:18:18;;;;;;;;;;;21.90;99.90;;;;;;8354484;28;19931;-75
2023/05/14 14:22:19;;;;;;;;;;;22.00;99.90;;;;;;8380195;28;20298;-75
2023/05/14 14:26:21;;;;;;;;;;;22.20;99.90;;;;;;8366925;28;19939;-75
2023/05/14 14:30:22;;;;;;;;;;;22.30;99.90;;;;;;8366922;28;19952;-75
2023/05/14 14:34:24;;;;;;;;;;;22.30;99.90;;;;;;8368311;28;20307;-75
2023/05/14 14:38:26;;;;;;;;;;;22.20;99.90;;;;;;8381280;28;19957;-75
2023/05/14 14:42:27;;;;;;;;;;;22.20;99.90;;;;;;8361447;28;20354;-74
2023/05/14 14:46:29;;;;;;;;;;;22.00;99.90;;;;;;8375170;28;19933;-74
2023/05/14 14:50:33;;;;;;;;;;;21.90;99.90;;;;;;8371010;28;20356;-75
2023/05/14 14:54:35;;;;;;;;;;;21.90;99.90;;;;;;8362766;28;20019;-74
2023/05/14 14:58:37;;;;;;;;;;;22.00;99.90;;;;;;8381820;28;19960;-75
2023/05/14 15:02:41;;;;;;;;;;;22.10;99.90;;;;;;8367128;28;19956;-75
2023/05/14 15:06:43;;;;;;;;;;;22.20;99.90;;;;;;8354691;28;19955;-75
2023/05/14 15:10:44;;;;;;;;;;;22.30;99.90;;;;;;8354316;28;19929;-75
2023/05/14 15:14:46;;;;;;;;;;;22.30;99.90;;;;;;8363269;28;19947;-75
2023/05/14 15:18:48;;;;;;;;;;;22.40;99.90;;;;;;8364486;28;19932;-75
2023/05/14 15:22:51;;;;;;;;;;;22.40;99.90;;;;;;8359861;28;19928;-76
2023/05/14 15:26:52;;;;;;;;;;;22.40;99.90;;;;;;8366394;28;19935;-75
2023/05/14 15:30:54;;;;;;;;;;;22.50;99.90;;;;;;8359181;28;20292;-74
2023/05/14 15:34:56;;;;;;;;;;;22.50;99.90;;;;;;8361837;28;20031;-74
2023/05/14 15:38:58;;;;;;;;;;;22.50;99.90;;;;;;8362148;28;19928;-74
2023/05/14 15:42:59;;;;;;;;;;;22.60;99.90;;;;;;8363858;28;20355;-75
2023/05/14 15:47:04;;;;;;;;;;;22.60;99.90;;;;;;8341093;28;19979;-75
2023/05/14 15:51:06;;;;;;;;;;;22.60;99.90;;;;;;8342038;28;19925;-74
2023/05/14 15:55:08;;;;;;;;;;;22.50;99.90;;;;;;8358348;28;19942;-74
2023/05/14 15:59:10;;;;;;;;;;;22.30;99.90;;;;;;8364886;28;20384;-75
2023/05/14 16:03:12;;;;;;;;;;;22.30;99.90;;;;;;8370991;28;19932;-75
2023/05/14 16:07:13;;;;;;;;;;;22.20;99.90;;;;;;8354865;28;19933;-74
2023/05/14 16:11:15;;;;;;;;;;;22.20;99.90;;;;;;8366588;28;19935;-75
2023/05/14 16:15:17;;;;;;;;;;;22.30;99.90;;;;;;8370736;28;20300;-74
2023/05/14 16:19:18;;;;;;;;;;;22.40;99.90;;;;;;8365100;28;20119;-75
2023/05/14 16:23:20;;;;;;;;;;;22.50;99.90;;;;;;8372844;28;19925;-74
2023/05/14 16:27:22;;;;;;;;;;;22.40;99.90;;;;;;8367319;28;19933;-74
2023/05/14 16:31:23;;;;;;;;;;;22.40;99.90;;;;;;8369458;28;20028;-74
2023/05/14 16:35:25;;;;;;;;;;;22.40;99.90;;;;;;8384436;28;19924;-74
2023/05/14 16:39:26;;;;;;;;;;;22.30;99.90;;;;;;8373299;28;19935;-74
2023/05/14 16:43:28;;;;;;;;;;;22.30;99.90;;;;;;8372880;28;20014;-75
2023/05/14 16:47:32;;;;;;;;;;;22.30;99.90;;;;;;8368388;28;19928;-74
2023/05/14 16:51:35;;;;;;;;;;;22.10;99.90;;;;;;8373872;28;19933;-75
2023/05/14 16:55:36;;;;;;;;;;;21.90;99.90;;;;;;8367076;28;20375;-74
2023/05/14 16:59:38;;;;;;;;;;;21.80;99.90;;;;;;8366918;28;20015;-74
2023/05/14 17:03:40;;;;;;;;;;;21.70;99.90;;;;;;8364086;28;19928;-74
2023/05/14 17:07:42;;;;;;;;;;;21.70;99.90;;;;;;8367522;28;19925;-74
2023/05/14 17:11:43;;;;;;;;;;;21.70;99.90;;;;;;8369892;28;19932;-74
2023/05/14 17:15:45;;;;;;;;;;;21.70;99.90;;;;;;8374245;28;19929;-74
2023/05/14 17:19:47;;;;;;;;;;;21.60;99.90;;;;;;8363862;28;19935;-74
2023/05/14 17:23:48;;;;;;;;;;;21.50;99.90;;;;;;8354484;28;19970;-74
2023/05/14 17:27:50;;;;;;;;;;;21.50;99.90;;;;;;8363376;28;19983;-75
2023/05/14 17:31:52;;;;;;;;;;;21.40;99.90;;;;;;8362480;28;20031;-75
2023/05/14 17:35:54;;;;;;;;;;;21.30;99.90;;;;;;8375383;28;19986;-75
2023/05/14 17:39:56;;;;;;;;;;;21.10;99.90;;;;;;8372672;28;19924;-75
2023/05/14 17:43:58;;;;;;;;;;;20.90;99.90;;;;;;8370654;28;19924;-75
2023/05/14 17:47:59;;;;;;;;;;;20.60;99.90;;;;;;8367919;28;19928;-75
2023/05/14 17:52:01;;;;;;;;;;;20.50;99.90;;;;;;8360360;28;20006;-76
2023/05/14 17:56:03;;;;;;;;;;;20.50;99.90;;;;;;8365492;28;19952;-75
2023/05/14 18:00:06;;;;;;;;;;;20.40;99.90;;;;;;8368024;28;19924;-75
2023/05/14 18:04:08;;;;;;;;;;;20.30;99.90;;;;;;8351372;28;19933;-75
2023/05/14 18:08:09;;;;;;;;;;;20.20;99.90;;;;;;8364892;28;19932;-75
2023/05/14 18:12:11;;;;;;;;;;;20.10;99.90;;;;;;8368913;28;19933;-75
2023/05/14 18:16:12;;;;;;;;;;;20.00;99.90;;;;;;8356464;28;20386;-75
2023/05/14 18:20:14;;;;;;;;;;;19.90;99.90;;;;;;8378838;28;19962;-75
2023/05/14 18:24:16;;;;;;;;;;;19.90;99.90;;;;;;8370630;28;19924;-75
2023/05/14 18:28:17;;;;;;;;;;;19.90;99.90;;;;;;8350538;28;19935;-75
2023/05/14 18:32:20;;;;;;;;;;;19.80;99.90;;;;;;8380523;28;20578;-75
2023/05/14 18:36:21;;;;;;;;;;;19.60;99.90;;;;;;8384412;28;19968;-75
2023/05/14 18:40:23;;;;;;;;;;;19.50;99.90;;;;;;8370608;28;19939;-75
2023/05/14 18:44:24;;;;;;;;;;;19.40;99.90;;;;;;8363890;28;19964;-75
2023/05/14 18:48:26;;;;;;;;;;;19.30;99.90;;;;;;8363642;28;20007;-74
2023/05/14 18:52:28;;;;;;;;;;;19.20;99.90;;;;;;8366764;28;20379;-75
2023/05/14 18:56:30;;;;;;;;;;;19.00;99.90;;;;;;8365506;28;19925;-75
2023/05/14 19:00:31;;;;;;;;;;;18.90;99.90;;;;;;8345829;28;20019;-75
2023/05/14 19:04:33;;;;;;;;;;;18.90;99.90;;;;;;8364268;28;20396;-75
2023/05/14 19:08:45;;;;;;;;;;;18.90;99.90;;;;;;8375930;28;19928;-75
2023/05/14 19:12:46;;;;;;;;;;;18.80;99.90;;;;;;8348310;28;19928;-75
2023/05/14 19:16:48;;;;;;;;;;;18.80;99.90;;;;;;8363465;28;19929;-75
2023/05/14 19:20:50;;;;;;;;;;;18.70;99.90;;;;;;8365961;28;19924;-75
2023/05/14 19:24:52;;;;;;;;;;;18.70;99.90;;;;;;8362338;28;20754;-75
2023/05/14 19:28:57;;;;;;;;;;;18.60;99.90;;;;;;8346658;28;19934;-75
2023/05/14 19:32:58;;;;;;;;;;;18.60;99.90;;;;;;8361450;28;20300;-75
2023/05/14 19:37:00;;;;;;;;;;;18.50;99.90;;;;;;8361267;28;19975;-75
2023/05/14 19:41:02;;;;;;;;;;;18.40;99.90;;;;;;8364430;28;19924;-75
2023/05/14 19:45:04;;;;;;;;;;;18.30;99.90;;;;;;8343387;28;20330;-75
2023/05/14 19:49:05;;;;;;;;;;;18.20;99.90;;;;;;8359871;28;19931;-75
2023/05/14 19:53:07;;;;;;;;;;;18.20;99.90;;;;;;8368665;28;19988;-75
2023/05/14 19:57:09;;;;;;;;;;;18.00;99.90;;;;;;8359804;28;20023;-74
2023/05/14 20:01:11;;;;;;;;;;;18.00;99.90;;;;;;8360062;28;19932;-75
2023/05/14 20:05:12;;;;;;;;;;;17.90;99.90;;;;;;8357463;28;19930;-75
2023/05/14 20:09:14;;;;;;;;;;;17.80;99.90;;;;;;8364721;28;19939;-75
2023/05/14 20:13:16;;;;;;;;;;;17.80;99.90;;;;;;8356871;28;19950;-75
2023/05/14 20:17:17;;;;;;;;;;;17.70;99.90;;;;;;8359731;28;19932;-75
2023/05/14 20:21:19;;;;;;;;;;;17.70;99.90;;;;;;8367218;28;20369;-75
2023/05/14 20:25:21;;;;;;;;;;;17.60;99.90;;;;;;8358196;28;20368;-75
2023/05/14 20:29:23;;;;;;;;;;;17.60;99.90;;;;;;8362619;28;19931;-75
2023/05/14 20:33:25;;;;;;;;;;;17.50;99.90;;;;;;8345907;28;19924;-75
2023/05/14 20:37:29;;;;;;;;;;;17.40;99.90;;;;;;8354741;28;19939;-75
2023/05/14 20:41:31;;;;;;;;;;;17.40;99.90;;;;;;8364061;28;20300;-75
2023/05/14 20:45:32;;;;;;;;;;;17.30;99.90;;;;;;8354858;28;19933;-75
2023/05/14 20:49:34;;;;;;;;;;;17.30;99.90;;;;;;8363387;28;19933;-75
2023/05/14 20:53:37;;;;;;;;;;;17.20;99.90;;;;;;8365789;28;20015;-75
2023/05/14 20:57:39;;;;;;;;;;;17.20;99.90;;;;;;8364600;28;19925;-74
2023/05/14 21:01:41;;;;;;;;;;;17.10;99.90;;;;;;8372862;28;19932;-75
2023/05/14 21:05:43;;;;;;;;;;;17.00;99.90;;;;;;8371358;28;19931;-75
2023/05/14 21:09:49;;;;;;;;;;;16.90;99.90;;;;;;8376468;28;20291;-75
2023/05/14 21:13:51;;;;;;;;;;;16.80;99.90;;;;;;8375211;28;19943;-75
2023/05/14 21:17:53;;;;;;;;;;;16.70;99.90;;;;;;8373075;28;20288;-75
2023/05/14 21:21:55;;;;;;;;;;;16.70;99.90;;;;;;8389632;28;19925;-75
2023/05/14 21:25:56;;;;;;;;;;;16.60;99.90;;;;;;8396051;28;19936;-75
2023/05/14 21:29:58;;;;;;;;;;;16.40;99.90;;;;;;8380803;28;19929;-75
2023/05/14 21:34:00;;;;;;;;;;;16.40;99.90;;;;;;8371625;28;19928;-75
2023/05/14 21:38:01;;;;;;;;;;;16.40;99.90;;;;;;8370400;28;20023;-74
2023/05/14 21:42:03;;;;;;;;;;;16.30;99.90;;;;;;8371509;28;19967;-75
2023/05/14 21:46:05;;;;;;;;;;;16.30;99.90;;;;;;8381692;28;19959;-75
2023/05/14 21:50:07;;;;;;;;;;;16.30;99.90;;;;;;8393217;28;19934;-75
2023/05/14 21:54:09;;;;;;;;;;;16.20;99.90;;;;;;8380481;28;19986;-75
2023/05/14 21:58:10;;;;;;;;;;;16.10;99.90;;;;;;8387141;28;19967;-75
2023/05/14 22:02:12;;;;;;;;;;;16.00;99.90;;;;;;8384470;28;19976;-75
2023/05/14 22:06:14;;;;;;;;;;;15.90;99.90;;;;;;8374037;28;20380;-75
2023/05/14 22:10:15;;;;;;;;;;;15.80;99.90;;;;;;8386579;28;19944;-75
2023/05/14 22:14:19;;;;;;;;;;;15.70;99.90;;;;;;8394057;28;21268;-75
2023/05/14 22:18:21;;;;;;;;;;;15.70;99.90;;;;;;8371512;28;19933;-75
2023/05/14 22:22:22;;;;;;;;;;;15.70;99.90;;;;;;8371557;28;19939;-75
2023/05/14 22:26:24;;;;;;;;;;;15.70;99.90;;;;;;8372725;28;20304;-75
2023/05/14 22:30:26;;;;;;;;;;;15.60;99.90;;;;;;8390287;28;19967;-75
2023/05/14 22:34:27;;;;;;;;;;;15.50;99.90;;;;;;8387825;28;19967;-75
2023/05/14 22:38:29;;;;;;;;;;;15.50;99.90;;;;;;8385278;28;19925;-75
2023/05/14 22:42:30;;;;;;;;;;;15.50;99.90;;;;;;8383595;28;20364;-75
2023/05/14 22:46:32;;;;;;;;;;;15.40;99.90;;;;;;8386608;28;20372;-75
2023/05/14 22:50:34;;;;;;;;;;;15.40;99.90;;;;;;8384976;28;19929;-74
2023/05/14 22:54:35;;;;;;;;;;;15.30;99.90;;;;;;8383540;28;20020;-75
2023/05/14 22:58:37;;;;;;;;;;;15.20;99.90;;;;;;8386577;28;19938;-75
2023/05/14 23:02:39;;;;;;;;;;;15.20;99.90;;;;;;8385654;28;20392;-75
2023/05/14 23:06:40;;;;;;;;;;;15.10;99.90;;;;;;8379260;28;19932;-75
2023/05/14 23:10:42;;;;;;;;;;;15.10;99.90;;;;;;8384911;28;19970;-75
2023/05/14 23:14:44;;;;;;;;;;;15.00;99.90;;;;;;8384999;28;20468;-75
2023/05/14 23:18:46;;;;;;;;;;;15.00;99.90;;;;;;8388439;28;19925;-75
2023/05/14 23:22:48;;;;;;;;;;;15.00;99.90;;;;;;8391343;28;20485;-75
2023/05/14 23:26:50;;;;;;;;;;;15.00;99.90;;;;;;8389782;28;19932;-75